createdAt,value
2018-02-12T00:00:11.028Z,4.50
2018-02-12T00:02:38.499Z,4.10
2018-02-12T00:05:05.955Z,4.60
2018-02-12T00:07:33.411Z,4.00
2018-02-12T00:10:00.858Z,3.80
2018-02-12T00:12:28.307Z,3.53
2018-02-12T00:14:55.753Z,3.20
2018-02-12T00:17:23.217Z,3.30
2018-02-12T00:19:50.675Z,2.50
2018-02-12T00:22:18.131Z,2.37
2018-02-12T00:24:45.586Z,2.40
2018-02-12T00:27:13.043Z,1.70
2018-02-12T00:29:40.486Z,1.60
2018-02-12T00:32:07.943Z,1.40
2018-02-12T00:34:35.390Z,1.50
2018-02-12T00:37:02.846Z,1.73
2018-02-12T00:39:30.297Z,1.40
2018-02-12T00:41:57.754Z,1.77
2018-02-12T00:44:25.189Z,1.67
2018-02-12T00:46:52.647Z,1.60
2018-02-12T00:49:20.091Z,1.53
2018-02-12T00:51:48.310Z,1.73
2018-02-12T00:54:15.754Z,2.17
2018-02-12T00:56:43.210Z,1.97
2018-02-12T00:59:10.684Z,2.30
2018-02-12T01:01:38.130Z,2.07
2018-02-12T01:04:05.581Z,2.90
2018-02-12T01:06:33.034Z,2.97
2018-02-12T01:09:00.490Z,2.60
2018-02-12T01:11:27.946Z,2.60
2018-02-12T01:13:55.403Z,1.90
2018-02-12T01:16:22.862Z,2.03
2018-02-12T01:18:50.314Z,1.90
2018-02-12T01:21:17.770Z,2.10
2018-02-12T01:23:45.227Z,2.50
2018-02-12T01:26:12.682Z,3.90
2018-02-12T01:28:40.144Z,3.00
2018-02-12T01:31:07.594Z,2.27
2018-02-12T01:33:35.051Z,3.20
2018-02-12T01:36:02.494Z,1.90
2018-02-12T01:38:29.938Z,1.67
2018-02-12T01:40:57.388Z,1.70
2018-02-12T01:43:25.610Z,1.70
2018-02-12T01:45:53.051Z,2.07
2018-02-12T01:48:20.506Z,1.60
2018-02-12T01:50:47.972Z,1.80
2018-02-12T01:53:15.647Z,1.83
2018-02-12T01:55:43.118Z,1.47
2018-02-12T01:58:10.593Z,1.70
2018-02-12T02:00:38.828Z,1.63
2018-02-12T02:03:06.279Z,1.90
2018-02-12T02:05:33.750Z,2.07
2018-02-12T02:08:01.202Z,1.80
2018-02-12T02:10:28.646Z,2.40
2018-02-12T02:12:56.110Z,2.47
2018-02-12T02:15:23.602Z,2.83
2018-02-12T02:17:51.849Z,3.13
2018-02-12T02:20:19.319Z,2.50
2018-02-12T02:22:46.787Z,2.60
2018-02-12T02:25:14.248Z,3.27
2018-02-12T02:27:41.702Z,3.43
2018-02-12T02:30:09.946Z,3.60
2018-02-12T02:32:37.422Z,3.13
2018-02-12T02:35:04.890Z,3.50
2018-02-12T02:37:32.365Z,3.60
2018-02-12T02:40:00.595Z,5.00
2018-02-12T02:42:28.035Z,5.57
2018-02-12T02:44:55.509Z,3.60
2018-02-12T02:47:22.970Z,3.43
2018-02-12T02:49:50.414Z,3.13
2018-02-12T02:52:17.882Z,3.20
2018-02-12T02:54:45.343Z,3.77
2018-02-12T02:57:12.800Z,3.73
2018-02-12T02:59:40.248Z,4.70
2018-02-12T03:02:07.698Z,5.50
2018-02-12T03:04:35.153Z,4.20
2018-02-12T03:07:02.593Z,5.43
2018-02-12T03:09:30.059Z,4.80
2018-02-12T03:11:57.501Z,2.77
2018-02-12T03:14:24.953Z,2.80
2018-02-12T03:16:52.394Z,2.00
2018-02-12T03:19:19.858Z,2.20
2018-02-12T03:21:47.294Z,2.40
2018-02-12T03:24:14.762Z,2.07
2018-02-12T03:26:42.213Z,1.93
2018-02-12T03:29:09.653Z,2.07
2018-02-12T03:31:37.965Z,2.43
2018-02-12T03:34:05.425Z,2.30
2018-02-12T03:36:33.801Z,2.50
2018-02-12T03:39:01.255Z,2.17
2018-02-12T03:41:28.710Z,2.30
2018-02-12T03:43:56.176Z,2.23
2018-02-12T03:46:23.635Z,2.07
2018-02-12T03:48:51.082Z,2.40
2018-02-12T03:51:18.535Z,1.87
2018-02-12T03:53:45.991Z,2.20
2018-02-12T03:56:13.449Z,2.13
2018-02-12T03:58:40.903Z,2.00
2018-02-12T04:01:09.126Z,2.47
2018-02-12T04:03:36.584Z,2.83
2018-02-12T04:06:04.056Z,2.90
2018-02-12T04:08:32.270Z,2.53
2018-02-12T04:10:59.722Z,2.40
2018-02-12T04:13:27.172Z,2.57
2018-02-12T04:15:54.615Z,2.90
2018-02-12T04:18:22.054Z,4.27
2018-02-12T04:20:50.275Z,2.47
2018-02-12T04:23:17.718Z,3.10
2018-02-12T04:25:45.174Z,2.67
2018-02-12T04:28:12.618Z,2.47
2018-02-12T04:30:40.081Z,2.50
2018-02-12T04:33:07.519Z,2.40
2018-02-12T04:35:34.983Z,2.57
2018-02-12T04:38:02.433Z,2.50
2018-02-12T04:40:29.891Z,2.80
2018-02-12T04:42:57.395Z,2.50
2018-02-12T04:45:24.887Z,2.93
2018-02-12T04:47:52.351Z,2.50
2018-02-12T04:50:19.815Z,2.43
2018-02-12T04:52:47.351Z,2.80
2018-02-12T04:55:14.810Z,3.03
2018-02-12T04:57:43.043Z,2.53
2018-02-12T05:00:10.628Z,2.10
2018-02-12T05:02:38.103Z,3.50
2018-02-12T05:05:06.329Z,2.83
2018-02-12T05:07:33.786Z,2.53
2018-02-12T05:10:01.259Z,4.10
2018-02-12T05:12:28.704Z,3.00
2018-02-12T05:14:56.147Z,3.07
2018-02-12T05:17:23.602Z,2.50
2018-02-12T05:19:51.815Z,2.83
2018-02-12T05:22:19.267Z,2.93
2018-02-12T05:24:46.710Z,2.73
2018-02-12T05:27:14.167Z,2.87
2018-02-12T05:29:41.628Z,2.60
2018-02-12T05:32:09.078Z,3.13
2018-02-12T05:34:36.535Z,3.60
2018-02-12T05:37:03.991Z,2.77
2018-02-12T05:39:31.443Z,2.97
2018-02-12T05:41:58.895Z,2.60
2018-02-12T05:44:26.340Z,2.57
2018-02-12T05:46:53.830Z,3.10
2018-02-12T05:49:21.278Z,3.33
2018-02-12T05:51:48.728Z,2.80
2018-02-12T05:54:16.169Z,2.60
2018-02-12T05:56:43.616Z,3.20
2018-02-12T05:59:11.075Z,2.53
2018-02-12T06:01:38.518Z,3.00
2018-02-12T06:04:05.984Z,2.80
2018-02-12T06:06:33.418Z,2.80
2018-02-12T06:09:00.863Z,2.30
2018-02-12T06:11:29.072Z,2.90
2018-02-12T06:13:56.527Z,3.03
2018-02-12T06:16:23.954Z,2.27
2018-02-12T06:18:52.186Z,4.37
2018-02-12T06:21:19.634Z,3.03
2018-02-12T06:23:47.100Z,2.70
2018-02-12T06:26:14.551Z,2.40
2018-02-12T06:28:41.998Z,2.63
2018-02-12T06:31:09.441Z,2.50
2018-02-12T06:33:36.901Z,2.70
2018-02-12T06:36:04.338Z,3.03
2018-02-12T06:38:31.787Z,2.73
2018-02-12T06:40:59.227Z,2.97
2018-02-12T06:43:27.443Z,3.13
2018-02-12T06:45:54.895Z,2.50
2018-02-12T06:48:22.351Z,3.10
2018-02-12T06:50:49.807Z,2.90
2018-02-12T06:53:17.267Z,3.40
2018-02-12T06:55:44.719Z,2.57
2018-02-12T06:58:12.191Z,3.10
2018-02-12T07:00:39.635Z,3.33
2018-02-12T07:03:07.088Z,3.20
2018-02-12T07:05:34.546Z,3.40
2018-02-12T07:08:01.999Z,3.73
2018-02-12T07:10:29.454Z,3.60
2018-02-12T07:12:56.911Z,3.20
2018-02-12T07:15:24.363Z,3.30
2018-02-12T07:17:51.812Z,4.07
2018-02-12T07:20:19.257Z,5.40
2018-02-12T07:22:46.699Z,3.60
2018-02-12T07:25:14.924Z,3.90
2018-02-12T07:27:42.367Z,4.30
2018-02-12T07:30:09.827Z,4.40
2018-02-12T07:32:38.044Z,4.60
2018-02-12T07:35:05.491Z,4.40
2018-02-12T07:37:32.934Z,4.33
2018-02-12T07:40:00.391Z,4.00
2018-02-12T07:42:27.836Z,4.27
2018-02-12T07:44:55.306Z,4.47
2018-02-12T07:47:22.755Z,4.93
2018-02-12T07:49:50.211Z,4.00
2018-02-12T07:52:17.672Z,4.53
2018-02-12T07:54:45.123Z,4.70
2018-02-12T07:57:12.576Z,5.30
2018-02-12T07:59:40.043Z,4.50
2018-02-12T08:02:07.496Z,4.50
2018-02-12T08:04:34.946Z,4.13
2018-02-12T08:07:02.398Z,4.00
2018-02-12T08:09:29.840Z,4.20
2018-02-12T08:11:58.063Z,4.70
2018-02-12T08:14:25.505Z,4.30
2018-02-12T08:16:52.959Z,4.23
2018-02-12T08:19:20.407Z,4.23
2018-02-12T08:21:47.859Z,4.77
2018-02-12T08:24:15.307Z,4.67
2018-02-12T08:26:42.751Z,4.60
2018-02-12T08:29:10.958Z,5.33
2018-02-12T08:31:38.407Z,4.67
2018-02-12T08:34:05.851Z,5.47
2018-02-12T08:36:33.291Z,4.77
2018-02-12T08:39:00.734Z,5.10
2018-02-12T08:41:28.187Z,5.60
2018-02-12T08:43:55.631Z,4.33
2018-02-12T08:46:23.855Z,5.33
2018-02-12T08:48:51.302Z,4.93
2018-02-12T08:51:18.746Z,5.03
2018-02-12T08:53:46.201Z,4.50
2018-02-12T08:56:13.655Z,5.37
2018-02-12T08:58:41.106Z,5.40
2018-02-12T09:01:08.550Z,5.00
2018-02-12T09:03:35.994Z,4.40
2018-02-12T09:06:03.434Z,5.03
2018-02-12T09:08:30.889Z,4.80
2018-02-12T09:10:58.385Z,4.80
2018-02-12T09:13:25.815Z,3.47
2018-02-12T09:15:54.030Z,3.13
2018-02-12T09:18:21.490Z,3.47
2018-02-12T09:20:48.945Z,4.07
2018-02-12T09:23:16.395Z,4.03
2018-02-12T09:25:43.848Z,3.77
2018-02-12T09:28:11.290Z,3.67
2018-02-12T09:30:38.732Z,3.20
2018-02-12T09:33:06.943Z,3.47
2018-02-12T09:35:34.397Z,4.20
2018-02-12T09:38:01.845Z,3.00
2018-02-12T09:40:29.276Z,3.07
2018-02-12T09:42:57.483Z,3.63
2018-02-12T09:45:24.914Z,3.70
2018-02-12T09:47:52.356Z,3.40
2018-02-12T09:50:20.566Z,3.00
2018-02-12T09:52:48.012Z,2.90
2018-02-12T09:55:15.454Z,3.30
2018-02-12T09:57:43.667Z,2.77
2018-02-12T10:00:11.110Z,3.60
2018-02-12T10:02:38.566Z,3.93
2018-02-12T10:05:06.010Z,3.37
2018-02-12T10:07:33.455Z,3.20
2018-02-12T10:10:00.891Z,3.37
2018-02-12T10:12:28.343Z,3.40
2018-02-12T10:14:55.786Z,3.30
2018-02-12T10:17:23.251Z,3.30
2018-02-12T10:19:50.688Z,2.93
2018-02-12T10:22:18.144Z,3.20
2018-02-12T10:24:45.579Z,2.93
2018-02-12T10:27:13.046Z,3.00
2018-02-12T10:29:40.486Z,2.90
2018-02-12T10:32:07.922Z,3.00
2018-02-12T10:34:35.364Z,3.23
2018-02-12T10:37:03.583Z,2.90
2018-02-12T10:39:31.026Z,2.73
2018-02-12T10:41:58.487Z,2.50
2018-02-12T10:44:25.937Z,2.80
2018-02-12T10:46:53.395Z,2.20
2018-02-12T10:49:20.852Z,3.10
2018-02-12T10:51:48.294Z,2.80
2018-02-12T10:54:15.730Z,3.00
2018-02-12T10:56:43.199Z,2.70
2018-02-12T10:59:10.641Z,2.67
2018-02-12T11:01:38.070Z,2.97
2018-02-12T11:04:05.535Z,4.10
2018-02-12T11:06:32.978Z,3.37
2018-02-12T11:09:00.434Z,2.70
2018-02-12T11:11:27.891Z,2.87
2018-02-12T11:13:55.346Z,3.60
2018-02-12T11:16:22.790Z,3.23
2018-02-12T11:18:50.247Z,3.10
2018-02-12T11:21:17.695Z,3.53
2018-02-12T11:23:45.194Z,3.40
2018-02-12T11:26:12.638Z,2.90
2018-02-12T11:28:40.087Z,2.80
2018-02-12T11:31:07.544Z,2.77
2018-02-12T11:33:34.987Z,3.17
2018-02-12T11:36:02.442Z,3.00
2018-02-12T11:38:29.887Z,3.43
2018-02-12T11:40:57.330Z,3.10
2018-02-12T11:43:24.778Z,2.90
2018-02-12T11:45:52.225Z,3.30
2018-02-12T11:48:19.654Z,3.47
2018-02-12T11:50:47.546Z,3.53
2018-02-12T11:53:14.983Z,3.60
2018-02-12T11:55:43.216Z,3.77
2018-02-12T11:58:10.675Z,3.00
2018-02-12T12:00:38.142Z,3.50
2018-02-12T12:03:05.600Z,3.17
2018-02-12T12:05:33.054Z,3.70
2018-02-12T12:08:00.497Z,3.47
2018-02-12T12:10:27.979Z,3.40
2018-02-12T12:12:55.414Z,3.63
2018-02-12T12:15:22.875Z,3.60
2018-02-12T12:17:50.326Z,3.27
2018-02-12T12:20:17.786Z,3.50
2018-02-12T12:22:45.242Z,3.47
2018-02-12T12:25:12.690Z,4.37
2018-02-12T12:27:40.150Z,3.10
2018-02-12T12:30:07.591Z,3.20
2018-02-12T12:32:35.034Z,3.30
2018-02-12T12:35:02.511Z,2.43
2018-02-12T12:37:29.971Z,2.37
2018-02-12T12:39:57.421Z,2.57
2018-02-12T12:42:24.858Z,2.60
2018-02-12T12:44:52.312Z,2.43
2018-02-12T12:47:22.172Z,2.40
2018-02-12T12:49:47.197Z,2.50
2018-02-12T12:52:15.414Z,2.53
2018-02-12T12:54:42.854Z,2.80
2018-02-12T12:57:10.310Z,2.70
2018-02-12T12:59:37.746Z,2.90
2018-02-12T13:02:05.198Z,3.07
2018-02-12T13:04:32.651Z,3.47
2018-02-12T13:07:00.866Z,3.60
2018-02-12T13:09:28.319Z,3.63
2018-02-12T13:11:55.779Z,2.90
2018-02-12T13:14:23.223Z,2.60
2018-02-12T13:16:50.677Z,3.60
2018-02-12T13:19:18.131Z,3.03
2018-02-12T13:21:45.593Z,3.00
2018-02-12T13:24:13.047Z,3.00
2018-02-12T13:26:40.498Z,3.77
2018-02-12T13:29:07.961Z,3.93
2018-02-12T13:31:36.539Z,4.00
2018-02-12T13:34:04.715Z,5.60
2018-02-12T13:36:32.166Z,5.00
2018-02-12T13:38:59.634Z,5.10
2018-02-12T13:41:27.084Z,4.83
2018-02-12T13:43:54.551Z,4.90
2018-02-12T13:46:22.015Z,4.80
2018-02-12T13:48:49.471Z,4.57
2018-02-12T13:51:16.944Z,4.83
2018-02-12T13:53:44.399Z,4.00
2018-02-12T13:56:11.854Z,4.00
2018-02-12T13:58:39.306Z,4.50
2018-02-12T14:01:06.767Z,4.20
2018-02-12T14:03:34.223Z,3.53
2018-02-12T14:06:01.667Z,3.80
2018-02-12T14:08:29.119Z,4.23
2018-02-12T14:10:56.573Z,4.50
2018-02-12T14:13:24.031Z,4.20
2018-02-12T14:15:51.490Z,4.53
2018-02-12T14:18:18.954Z,4.40
2018-02-12T14:20:46.418Z,4.50
2018-02-12T14:23:13.876Z,5.03
2018-02-12T14:25:41.328Z,3.90
2018-02-12T14:28:08.785Z,4.53
2018-02-12T14:30:36.234Z,4.80
2018-02-12T14:33:03.703Z,5.20
2018-02-12T14:35:31.150Z,3.70
2018-02-12T14:37:58.610Z,3.20
2018-02-12T14:40:26.065Z,4.53
2018-02-12T14:42:53.535Z,4.10
2018-02-12T14:45:20.984Z,4.30
2018-02-12T14:47:48.468Z,5.20
2018-02-12T14:50:16.675Z,14.50
2018-02-12T14:52:44.130Z,6.20
2018-02-12T14:55:11.587Z,11.80
2018-02-12T14:57:39.071Z,10.90
2018-02-12T15:00:06.522Z,5.47
2018-02-12T15:02:33.964Z,4.03
2018-02-12T15:05:01.424Z,5.30
2018-02-12T15:07:28.870Z,5.70
2018-02-12T15:09:56.318Z,5.03
2018-02-12T15:12:23.774Z,5.63
2018-02-12T15:14:51.231Z,3.50
2018-02-12T15:17:18.687Z,4.40
2018-02-12T15:19:46.910Z,4.60
2018-02-12T15:22:14.354Z,4.57
2018-02-12T15:24:41.807Z,5.07
2018-02-12T15:27:09.268Z,4.57
2018-02-12T15:29:36.732Z,4.90
2018-02-12T15:32:04.183Z,5.17
2018-02-12T15:34:31.656Z,6.13
2018-02-12T15:36:59.871Z,6.10
2018-02-12T15:39:27.332Z,5.40
2018-02-12T15:41:54.782Z,5.10
2018-02-12T15:44:22.247Z,6.50
2018-02-12T15:46:49.701Z,6.40
2018-02-12T15:49:17.155Z,6.10
2018-02-12T15:51:44.609Z,6.30
2018-02-12T15:54:12.068Z,6.90
2018-02-12T15:56:39.521Z,6.00
2018-02-12T15:59:06.980Z,5.80
2018-02-12T16:01:34.427Z,5.60
2018-02-12T16:04:01.884Z,6.90
2018-02-12T16:06:29.323Z,7.00
2018-02-12T16:08:56.775Z,7.50
2018-02-12T16:11:25.007Z,9.90
2018-02-12T16:13:52.459Z,8.20
2018-02-12T16:16:19.910Z,8.00
2018-02-12T16:18:47.370Z,9.70
2018-02-12T16:21:14.827Z,9.90
2018-02-12T16:23:42.283Z,7.67
2018-02-12T16:26:09.738Z,8.00
2018-02-12T16:28:37.186Z,8.13
2018-02-12T16:31:04.647Z,7.40
2018-02-12T16:33:32.093Z,8.00
2018-02-12T16:35:59.544Z,8.43
2018-02-12T16:38:27.004Z,7.53
2018-02-12T16:40:54.455Z,8.33
2018-02-12T16:43:21.907Z,7.50
2018-02-12T16:45:49.362Z,8.77
2018-02-12T16:48:16.824Z,11.73
2018-02-12T16:50:44.283Z,16.03
2018-02-12T16:53:11.738Z,16.70
2018-02-12T16:55:39.214Z,21.70
2018-02-12T16:58:06.666Z,20.50
2018-02-12T17:00:34.123Z,19.47
2018-02-12T17:03:01.591Z,18.53
2018-02-12T17:05:29.055Z,19.50
2018-02-12T17:07:56.539Z,21.23
2018-02-12T17:10:23.991Z,21.00
2018-02-12T17:12:52.307Z,11.53
2018-02-12T17:15:19.783Z,9.10
2018-02-12T17:17:47.239Z,6.80
2018-02-12T17:20:14.705Z,6.63
2018-02-12T17:22:42.138Z,6.37
2018-02-12T17:25:09.582Z,6.13
2018-02-12T17:27:37.043Z,6.13
2018-02-12T17:30:04.493Z,5.10
2018-02-12T17:32:31.956Z,7.47
2018-02-12T17:34:59.494Z,8.60
2018-02-12T17:37:26.967Z,14.93
2018-02-12T17:39:54.426Z,10.70
2018-02-12T17:42:21.887Z,9.53
2018-02-12T17:44:49.335Z,6.93
2018-02-12T17:47:16.792Z,6.97
2018-02-12T17:49:44.733Z,9.63
2018-02-12T17:52:12.319Z,15.03
2018-02-12T17:54:39.846Z,16.30
2018-02-12T17:57:08.075Z,12.70
2018-02-12T17:59:35.558Z,20.90
2018-02-12T18:02:03.810Z,13.13
2018-02-12T18:04:31.268Z,12.40
2018-02-12T18:06:58.726Z,12.00
2018-02-12T18:09:26.194Z,10.73
2018-02-12T18:11:53.662Z,12.20
2018-02-12T18:14:21.888Z,12.20
2018-02-12T18:16:49.338Z,12.30
2018-02-12T18:19:16.799Z,11.67
2018-02-12T18:21:44.254Z,12.50
2018-02-12T18:24:11.715Z,12.90
2018-02-12T18:26:39.176Z,13.83
2018-02-12T18:29:06.639Z,17.37
2018-02-12T18:31:34.097Z,20.07
2018-02-12T18:34:02.472Z,24.40
2018-02-12T18:36:29.928Z,25.30
2018-02-12T18:38:57.383Z,22.77
2018-02-12T18:41:24.842Z,19.87
2018-02-12T18:43:52.323Z,17.80
2018-02-12T18:46:19.780Z,16.47
2018-02-12T18:48:47.242Z,16.73
2018-02-12T18:51:15.511Z,15.40
2018-02-12T18:53:42.966Z,17.10
2018-02-12T18:56:10.430Z,17.40
2018-02-12T18:58:38.671Z,19.43
2018-02-12T19:01:06.131Z,21.27
2018-02-12T19:03:33.603Z,23.03
2018-02-12T19:06:01.061Z,21.63
2018-02-12T19:08:28.522Z,20.30
2018-02-12T19:10:55.975Z,22.67
2018-02-12T19:13:23.431Z,24.20
2018-02-12T19:15:50.884Z,29.77
2018-02-12T19:18:18.357Z,28.70
2018-02-12T19:20:45.811Z,33.97
2018-02-12T19:23:14.060Z,37.07
2018-02-12T19:25:41.524Z,36.33
2018-02-12T19:28:08.984Z,31.53
2018-02-12T19:30:36.440Z,27.63
2018-02-12T19:33:03.915Z,22.90
2018-02-12T19:35:32.135Z,29.50
2018-02-12T19:37:59.595Z,23.97
2018-02-12T19:40:27.109Z,24.03
2018-02-12T19:42:54.514Z,24.90
2018-02-12T19:45:21.984Z,24.97
2018-02-12T19:47:49.450Z,26.23
2018-02-12T19:50:16.912Z,26.93
2018-02-12T19:52:44.363Z,25.70
2018-02-12T19:55:11.831Z,25.40
2018-02-12T19:57:39.298Z,23.43
2018-02-12T20:00:07.749Z,19.70
2018-02-12T20:02:35.229Z,16.70
2018-02-12T20:05:02.693Z,18.90
2018-02-12T20:07:31.351Z,31.87
2018-02-12T20:09:58.819Z,16.20
2018-02-12T20:12:26.274Z,18.13
2018-02-12T20:14:53.740Z,17.03
2018-02-12T20:17:21.958Z,17.50
2018-02-12T20:19:50.187Z,19.70
2018-02-12T20:22:18.411Z,20.33
2018-02-12T20:24:45.917Z,18.90
2018-02-12T20:27:13.318Z,16.33
2018-02-12T20:29:40.845Z,16.60
2018-02-12T20:32:08.374Z,17.70
2018-02-12T20:34:35.862Z,16.13
2018-02-12T20:37:04.157Z,18.30
2018-02-12T20:39:31.648Z,21.00
2018-02-12T20:41:59.104Z,20.77
2018-02-12T20:44:26.608Z,20.50
2018-02-12T20:46:54.850Z,16.87
2018-02-12T20:49:22.314Z,18.27
2018-02-12T20:51:49.779Z,15.17
2018-02-12T20:54:18.056Z,17.23
2018-02-12T20:56:46.612Z,17.33
2018-02-12T20:59:14.139Z,16.00
2018-02-12T21:01:41.635Z,12.30
2018-02-12T21:04:09.974Z,13.70
2018-02-12T21:06:37.487Z,13.40
2018-02-12T21:09:05.727Z,15.43
2018-02-12T21:11:34.039Z,17.90
2018-02-12T21:14:02.288Z,15.77
2018-02-12T21:16:29.776Z,15.90
2018-02-12T21:18:58.011Z,15.60
2018-02-12T21:21:25.492Z,16.40
2018-02-12T21:23:52.996Z,15.33
2018-02-12T21:26:20.468Z,15.07
2018-02-12T21:28:48.939Z,15.40
2018-02-12T21:31:16.415Z,12.93
2018-02-12T21:33:43.876Z,14.97
2018-02-12T21:36:11.364Z,13.73
2018-02-12T21:38:39.615Z,13.43
2018-02-12T21:41:07.238Z,12.90
2018-02-12T21:43:34.702Z,11.27
2018-02-12T21:46:02.211Z,10.17
2018-02-12T21:48:29.681Z,11.37
2018-02-12T21:50:57.145Z,11.60
2018-02-12T21:53:24.598Z,12.10
2018-02-12T21:55:52.082Z,11.60
2018-02-12T21:58:19.558Z,12.00
2018-02-12T22:00:58.954Z,11.50
2018-02-12T22:03:26.446Z,12.50
2018-02-12T22:05:53.918Z,11.00
2018-02-12T22:08:21.445Z,8.90
2018-02-12T22:10:48.903Z,9.60
2018-02-12T22:13:16.361Z,9.03
2018-02-12T22:15:43.815Z,8.93
2018-02-12T22:18:11.283Z,10.10
2018-02-12T22:20:38.761Z,11.17
2018-02-12T22:23:07.015Z,9.87
2018-02-12T22:25:34.479Z,11.80
2018-02-12T22:28:01.979Z,13.00
2018-02-12T22:30:30.206Z,12.00
2018-02-12T22:32:57.671Z,9.67
2018-02-12T22:35:25.141Z,10.47
2018-02-12T22:37:52.621Z,10.63
2018-02-12T22:40:20.052Z,9.47
2018-02-12T22:42:47.519Z,12.63
2018-02-12T22:45:18.023Z,22.67
2018-02-12T22:47:45.491Z,19.10
2018-02-12T22:50:12.946Z,18.87
2018-02-12T22:52:40.416Z,15.27
2018-02-12T22:55:07.871Z,14.40
2018-02-12T22:57:36.535Z,17.43
2018-02-12T23:00:03.983Z,15.30
2018-02-12T23:02:31.460Z,15.50
2018-02-12T23:04:59.125Z,15.53
2018-02-12T23:07:26.670Z,14.53
2018-02-12T23:09:54.144Z,14.17
2018-02-12T23:12:21.767Z,13.13
2018-02-12T23:14:49.242Z,11.50
2018-02-12T23:17:16.715Z,10.80
2018-02-12T23:19:44.173Z,11.33
2018-02-12T23:22:11.627Z,10.30
2018-02-12T23:24:39.096Z,11.17
2018-02-12T23:27:06.579Z,11.10
2018-02-12T23:29:34.023Z,10.50
2018-02-12T23:32:01.699Z,12.57
2018-02-12T23:34:29.169Z,12.50
2018-02-12T23:36:56.643Z,12.60
2018-02-12T23:39:24.103Z,13.10
2018-02-12T23:41:51.563Z,12.70
2018-02-12T23:44:19.014Z,11.93
2018-02-12T23:46:46.475Z,11.90
2018-02-12T23:49:13.940Z,12.07
2018-02-12T23:51:41.390Z,13.43
2018-02-12T23:54:08.850Z,13.03
2018-02-12T23:56:36.302Z,12.70
2018-02-12T23:59:03.772Z,12.77
